Time;durP1;ratioP1;P1;durP2;ratioP2;P2;SDS_P1;SDS_P2;PMS_P1;PMS_P2;Temp;Humidity;BMP_temperature;BMP_pressure;BME280_temperature;BME280_humidity;BME280_pressure;Samples;Min_cycle;Max_cycle;Signal;HPM_P1;HPM_P2
2023/11/03 00:00:08;;;;;;;5.30;1.30;;;;;;;12.91;52.44;96149.00;4955427;29;20059;-76
2023/11/03 00:02:35;;;;;;;5.72;1.70;;;;;;;12.87;52.61;96145.91;4954432;29;20078;-74
2023/11/03 00:05:04;;;;;;;5.00;1.67;;;;;;;12.83;52.96;96149.13;4955716;29;20054;-76
2023/11/03 00:07:32;;;;;;;5.47;2.00;;;;;;;12.79;53.02;96159.28;4955543;29;20051;-75
2023/11/03 00:10:00;;;;;;;8.30;1.67;;;;;;;12.74;53.12;96137.91;4955334;29;20047;-76
2023/11/03 00:12:26;;;;;;;8.93;1.80;;;;;;;12.69;53.44;96127.94;4955399;29;20055;-76
2023/11/03 00:14:53;;;;;;;10.23;1.70;;;;;;;12.64;53.62;96136.41;4954023;29;20047;-75
2023/11/03 00:17:19;;;;;;;9.18;1.80;;;;;;;12.61;53.80;96120.97;4955400;29;20055;-75
2023/11/03 00:19:46;;;;;;;7.80;1.75;;;;;;;12.56;54.32;96149.72;4955102;29;20405;-75
2023/11/03 00:22:13;;;;;;;8.05;1.73;;;;;;;12.51;54.43;96154.75;4954847;28;20047;-77
2023/11/03 00:24:40;;;;;;;6.95;1.67;;;;;;;12.45;54.76;96156.31;4953971;29;20485;-75
2023/11/03 00:27:07;;;;;;;9.02;2.13;;;;;;;12.38;54.94;96160.75;4955136;29;20098;-75
2023/11/03 00:29:34;;;;;;;5.78;1.42;;;;;;;12.31;55.23;96157.22;4953709;29;20066;-75
2023/11/03 00:32:01;;;;;;;8.35;1.85;;;;;;;12.21;55.83;96166.25;4954950;29;20082;-74
2023/11/03 00:34:27;;;;;;;6.32;1.65;;;;;;;12.15;55.99;96168.81;4955081;29;20059;-74
2023/11/03 00:36:54;;;;;;;6.60;1.67;;;;;;;12.06;56.27;96163.66;4954858;29;20051;-76
2023/11/03 00:39:21;;;;;;;10.55;1.60;;;;;;;12.00;56.57;96167.00;4954811;29;20411;-76
2023/11/03 00:41:49;;;;;;;6.97;1.65;;;;;;;11.95;56.55;96175.47;4954857;29;20123;-74
2023/11/03 00:44:17;;;;;;;6.30;1.42;;;;;;;11.90;56.96;96177.03;4954834;29;20055;-75
2023/11/03 00:46:46;;;;;;;4.53;1.50;;;;;;;11.83;57.42;96182.22;4953431;29;20054;-76
2023/11/03 00:49:13;;;;;;;3.92;1.15;;;;;;;11.79;57.51;96180.94;4954689;29;20106;-75
2023/11/03 00:51:40;;;;;;;5.15;1.40;;;;;;;11.73;57.68;96204.41;4954313;29;20051;-75
2023/11/03 00:54:07;;;;;;;5.80;1.30;;;;;;;11.67;57.98;96188.50;4954496;29;20118;-75
2023/11/03 00:56:37;;;;;;;3.65;1.02;;;;;;;11.59;57.93;96195.50;4953376;29;20411;-75
2023/11/03 00:59:04;;;;;;;4.07;1.17;;;;;;;11.51;58.45;96187.69;4954775;28;20047;-75
2023/11/03 01:01:31;;;;;;;4.15;1.00;;;;;;;11.45;58.08;96201.59;4954207;29;20047;-75
2023/11/03 01:03:58;;;;;;;3.55;1.10;;;;;;;11.38;58.53;96196.25;4954299;29;20496;-75
2023/11/03 01:06:25;;;;;;;6.95;1.38;;;;;;;11.32;58.59;96210.94;4952956;29;20162;-75
2023/11/03 01:08:51;;;;;;;6.70;1.35;;;;;;;11.29;58.70;96221.81;4954280;29;20154;-75
2023/11/03 01:11:20;;;;;;;8.43;1.63;;;;;;;11.25;59.26;96212.66;4952665;29;20058;-76
2023/11/03 01:13:47;;;;;;;5.28;1.13;;;;;;;11.23;59.08;96217.28;4954408;29;20091;-77
2023/11/03 01:16:13;;;;;;;3.45;1.17;;;;;;;11.22;59.75;96210.41;4954039;28;20047;-74
2023/11/03 01:18:40;;;;;;;7.75;1.58;;;;;;;11.22;59.69;96218.28;4954101;29;20060;-74
2023/11/03 01:21:15;;;;;;;3.95;1.15;;;;;;;11.21;59.85;96214.00;4952494;29;20524;-76
2023/11/03 01:23:43;;;;;;;6.28;1.80;;;;;;;11.21;60.32;96214.00;4954244;28;20051;-74
2023/11/03 01:26:10;;;;;;;5.03;1.50;;;;;;;11.22;60.08;96210.41;4953939;29;20419;-75
2023/11/03 01:28:37;;;;;;;5.93;1.45;;;;;;;11.24;60.38;96195.22;4954089;29;20067;-76
2023/11/03 01:31:05;;;;;;;4.32;1.40;;;;;;;11.25;60.29;96211.84;4952749;29;20111;-74
2023/11/03 01:33:32;;;;;;;9.85;1.70;;;;;;;11.26;60.45;96209.03;4952191;28;20158;-74
2023/11/03 01:35:59;;;;;;;5.85;1.35;;;;;;;11.27;60.29;96196.69;4954061;28;20522;-75
2023/11/03 01:38:25;;;;;;;4.20;1.45;;;;;;;11.29;60.37;96192.06;4954157;29;20051;-74
2023/11/03 01:40:53;;;;;;;5.43;1.20;;;;;;;11.28;60.64;96204.41;4952373;29;20134;-74
2023/11/03 01:43:20;;;;;;;4.63;1.30;;;;;;;11.28;60.47;96228.09;4953823;29;20122;-75
2023/11/03 01:45:47;;;;;;;8.32;1.50;;;;;;;11.29;60.48;96192.88;4953741;29;20059;-75
2023/11/03 01:48:14;;;;;;;4.63;1.10;;;;;;;11.28;60.55;96199.13;4953543;29;20054;-75
2023/11/03 01:50:42;;;;;;;4.43;1.17;;;;;;;11.28;60.58;96195.66;4952551;29;20055;-76
2023/11/03 01:53:10;;;;;;;4.70;1.00;;;;;;;11.27;60.57;96202.78;4953505;29;20543;-76
2023/11/03 01:55:37;;;;;;;6.28;1.10;;;;;;;11.28;60.49;96200.94;4953507;28;20436;-75
2023/11/03 01:58:04;;;;;;;8.05;1.40;;;;;;;11.28;60.80;96209.66;4952443;29;20055;-75
2023/11/03 02:00:32;;;;;;;4.20;1.17;;;;;;;11.30;60.43;96220.03;4953424;29;20047;-75
2023/11/03 02:02:59;;;;;;;2.55;0.90;;;;;;;11.30;60.67;96218.22;4953278;29;20082;-74
2023/11/03 02:05:26;;;;;;;5.32;1.10;;;;;;;11.32;60.50;96202.22;4953526;29;20047;-74
2023/11/03 02:07:52;;;;;;;4.57;1.30;;;;;;;11.33;60.57;96209.94;4953403;29;20106;-75
2023/11/03 02:10:19;;;;;;;4.65;0.95;;;;;;;11.34;60.75;96201.03;4953173;29;20137;-75
2023/11/03 02:12:46;;;;;;;2.95;1.02;;;;;;;11.35;60.79;96209.75;4953298;29;20055;-75
2023/11/03 02:15:13;;;;;;;2.33;0.98;;;;;;;11.37;60.79;96209.59;4953160;29;20043;-75
2023/11/03 02:17:41;;;;;;;6.53;1.48;;;;;;;11.36;61.33;96205.31;4953330;29;20050;-74
2023/11/03 02:20:08;;;;;;;7.60;1.38;;;;;;;11.37;60.91;96193.78;4951703;29;20058;-74
2023/11/03 02:22:35;;;;;;;4.10;1.15;;;;;;;11.36;61.05;96213.22;4953142;29;20048;-75
2023/11/03 02:25:02;;;;;;;7.25;1.90;;;;;;;11.38;60.98;96208.56;4953145;29;20063;-76
2023/11/03 02:27:30;;;;;;;5.68;1.30;;;;;;;11.38;60.95;96208.56;4951738;29;20055;-75
2023/11/03 02:29:56;;;;;;;8.15;1.25;;;;;;;11.40;60.58;96209.22;4952765;29;20110;-75
2023/11/03 02:32:23;;;;;;;4.57;1.20;;;;;;;11.41;61.08;96232.75;4953176;29;20047;-75
2023/11/03 02:34:50;;;;;;;4.82;1.35;;;;;;;11.44;60.98;96215.78;4953086;29;20059;-74
2023/11/03 02:37:16;;;;;;;3.15;1.20;;;;;;;11.43;60.85;96209.69;4953014;29;20054;-75
2023/11/03 02:39:47;;;;;;;6.75;1.42;;;;;;;11.46;60.89;96216.41;4952762;29;20717;-74
2023/11/03 02:42:17;;;;;;;5.93;1.50;;;;;;;11.44;61.21;96215.78;4952768;29;20059;-74
2023/11/03 02:44:43;;;;;;;3.20;1.20;;;;;;;11.45;61.42;96212.94;4952059;28;20051;-75
2023/11/03 02:47:10;;;;;;;5.85;1.17;;;;;;;11.46;60.98;96198.78;4952730;29;20057;-75
2023/11/03 02:49:37;;;;;;;3.38;1.08;;;;;;;11.46;60.87;96196.16;4952737;28;20117;-76
2023/11/03 02:52:04;;;;;;;6.05;1.38;;;;;;;11.47;60.87;96194.31;4952933;29;20134;-75
2023/11/03 02:54:31;;;;;;;4.18;1.13;;;;;;;11.47;60.77;96202.22;4952665;29;20575;-75
2023/11/03 02:56:58;;;;;;;9.07;1.40;;;;;;;11.47;60.84;96205.69;4952847;29;20122;-75
2023/11/03 02:59:24;;;;;;;4.35;1.15;;;;;;;11.48;60.73;96217.03;4952764;29;20417;-74
2023/11/03 03:01:51;;;;;;;6.47;1.23;;;;;;;11.50;60.70;96227.38;4952791;29;20051;-75
2023/11/03 03:04:17;;;;;;;4.85;1.08;;;;;;;11.50;60.91;96222.09;4953069;29;20070;-75
2023/11/03 03:06:45;;;;;;;4.55;1.48;;;;;;;11.52;60.72;96220.13;4952929;29;20094;-74
2023/11/03 03:09:12;;;;;;;1.65;0.77;;;;;;;11.53;60.63;96219.13;4952676;29;20047;-74
2023/11/03 03:11:40;;;;;;;4.95;1.15;;;;;;;11.53;60.74;96214.69;4952192;29;20492;-76
2023/11/03 03:14:07;;;;;;;2.95;1.25;;;;;;;11.54;60.66;96208.41;4951559;29;20051;-74
2023/11/03 03:16:33;;;;;;;4.75;1.33;;;;;;;11.54;60.70;96199.69;4951396;29;20118;-76
2023/11/03 03:19:00;;;;;;;2.38;0.80;;;;;;;11.53;60.83;96214.69;4951392;29;20419;-75
2023/11/03 03:21:26;;;;;;;6.32;1.50;;;;;;;11.52;60.68;96220.13;4952331;29;20058;-75
2023/11/03 03:23:53;;;;;;;3.13;0.85;;;;;;;11.49;60.61;96216.03;4952564;29;20097;-75
2023/11/03 03:26:20;;;;;;;1.73;0.73;;;;;;;11.47;60.82;96216.22;4952403;29;20055;-75
2023/11/03 03:28:46;;;;;;;6.07;1.70;;;;;;;11.46;60.81;96213.75;4952661;29;20102;-76
2023/11/03 03:31:13;;;;;;;3.63;1.10;;;;;;;11.43;60.85;96208.84;4950949;29;20098;-75
2023/11/03 03:33:39;;;;;;;3.55;0.95;;;;;;;11.39;60.78;96192.59;4952502;29;20122;-76
2023/11/03 03:36:09;;;;;;;2.58;0.70;;;;;;;11.37;61.29;96204.31;4951244;29;20051;-75
2023/11/03 03:38:36;;;;;;;3.83;0.82;;;;;;;11.36;60.89;96200.06;4951144;29;20143;-75
2023/11/03 03:41:03;;;;;;;4.57;0.88;;;;;;;11.33;61.19;96199.41;4952294;29;20093;-76
2023/11/03 03:43:30;;;;;;;2.38;0.80;;;;;;;11.32;60.99;96210.13;4952563;29;20142;-75
2023/11/03 03:45:56;;;;;;;5.78;0.80;;;;;;;11.30;61.00;96204.22;4952314;29;20052;-75
2023/11/03 03:48:23;;;;;;;3.55;0.70;;;;;;;11.30;60.85;96204.22;4952231;29;20135;-75
2023/11/03 03:50:49;;;;;;;5.68;1.20;;;;;;;11.28;60.92;96207.03;4952071;29;20138;-76
2023/11/03 03:53:16;;;;;;;5.70;0.95;;;;;;;11.27;60.97;96207.22;4952110;29;20059;-76
2023/11/03 03:55:42;;;;;;;2.72;0.88;;;;;;;11.26;61.03;96209.03;4952410;28;20106;-75
2023/11/03 03:58:09;;;;;;;7.28;0.90;;;;;;;11.27;61.00;96229.09;4955664;29;20059;-75
2023/11/03 04:00:35;;;;;;;6.90;1.10;;;;;;;11.27;60.93;96221.19;4955437;29;20057;-76
2023/11/03 04:03:03;;;;;;;3.45;0.95;;;;;;;11.28;60.89;96225.47;4955635;28;20115;-76
2023/11/03 04:05:29;;;;;;;3.22;0.90;;;;;;;11.29;61.48;96218.38;4955603;28;20055;-75
2023/11/03 04:07:56;;;;;;;6.30;1.23;;;;;;;11.32;60.90;96228.53;4954130;29;20717;-75
2023/11/03 04:10:23;;;;;;;2.05;0.70;;;;;;;11.33;60.88;96232.84;4955300;29;20451;-76
2023/11/03 04:12:49;;;;;;;9.13;1.13;;;;;;;11.36;60.87;96242.19;4954262;29;20118;-76
2023/11/03 04:15:16;;;;;;;4.82;0.93;;;;;;;11.37;60.78;96233.28;4955452;29;20043;-74
2023/11/03 04:17:42;;;;;;;3.83;1.10;;;;;;;11.38;60.68;96241.00;4955342;29;20550;-76
2023/11/03 04:20:09;;;;;;;5.68;0.77;;;;;;;11.40;60.64;96244.25;4955171;29;20059;-74
2023/11/03 04:22:36;;;;;;;2.10;0.70;;;;;;;11.43;60.74;96253.63;4955131;29;20080;-75
2023/11/03 04:25:03;;;;;;;3.88;0.85;;;;;;;11.43;60.54;96246.53;4955415;29;20059;-75
2023/11/03 04:27:29;;;;;;;2.05;0.75;;;;;;;11.46;60.57;96248.00;4954011;29;20063;-75
2023/11/03 04:29:56;;;;;;;1.67;0.73;;;;;;;11.49;60.51;96252.09;4955130;29;20051;-74
2023/11/03 04:32:23;;;;;;;4.07;0.80;;;;;;;11.50;60.42;96259.81;4955100;29;20472;-76
2023/11/03 04:34:49;;;;;;;2.30;1.00;;;;;;;11.52;60.27;96263.09;4955333;29;20134;-74
2023/11/03 04:37:16;;;;;;;5.00;1.00;;;;;;;11.54;60.28;96258.44;4955180;29;20051;-74
2023/11/03 04:39:42;;;;;;;1.85;0.80;;;;;;;11.57;60.39;96266.00;4954990;29;20110;-75
2023/11/03 04:42:09;;;;;;;2.38;0.85;;;;;;;11.59;60.09;96276.38;4955004;29;20055;-75
2023/11/03 04:44:36;;;;;;;2.03;0.73;;;;;;;11.62;60.24;96281.25;4955036;29;20059;-75
2023/11/03 04:47:02;;;;;;;4.22;0.90;;;;;;;11.63;60.03;96276.81;4955044;29;20089;-75
2023/11/03 04:49:30;;;;;;;4.50;1.42;;;;;;;11.65;59.92;96274.78;4954603;29;20063;-76
2023/11/03 04:51:57;;;;;;;4.90;1.33;;;;;;;11.67;59.95;96262.28;4955034;28;20051;-74
2023/11/03 04:54:23;;;;;;;2.28;1.17;;;;;;;11.70;59.88;96267.19;4954705;29;20108;-77
2023/11/03 04:56:50;;;;;;;5.80;0.98;;;;;;;11.71;59.83;96258.28;4954760;29;20055;-75
2023/11/03 04:59:16;;;;;;;1.85;1.00;;;;;;;11.72;59.66;96262.53;4954961;29;20114;-75
2023/11/03 05:01:44;;;;;;;3.88;1.13;;;;;;;11.73;59.66;96272.06;4954386;29;20396;-74
2023/11/03 05:04:11;;;;;;;2.90;0.80;;;;;;;11.75;59.57;96266.63;4953229;29;20147;-75
2023/11/03 05:06:37;;;;;;;4.35;0.70;;;;;;;11.76;59.46;96284.91;4954417;29;20051;-75
2023/11/03 05:09:06;;;;;;;3.67;0.80;;;;;;;11.78;59.38;96285.53;4953895;28;20055;-75
2023/11/03 05:11:32;;;;;;;3.80;0.70;;;;;;;11.78;59.37;96292.63;4954202;29;20055;-74
2023/11/03 05:13:59;;;;;;;6.93;1.02;;;;;;;11.80;59.36;96295.88;4954466;29;20575;-75
2023/11/03 05:16:26;;;;;;;4.30;1.00;;;;;;;11.79;59.16;96300.34;4954206;29;20110;-75
2023/11/03 05:18:52;;;;;;;3.55;0.90;;;;;;;11.80;59.22;96291.44;4954599;29;20074;-75
2023/11/03 05:21:19;;;;;;;1.88;0.70;;;;;;;11.82;59.21;96275.44;4954165;29;20058;-76
2023/11/03 05:23:45;;;;;;;2.00;0.80;;;;;;;11.83;59.39;96291.09;4954311;29;20138;-75
2023/11/03 05:26:13;;;;;;;7.20;1.08;;;;;;;11.84;59.12;96297.16;4954135;29;20051;-75
2023/11/03 05:28:41;;;;;;;4.15;1.27;;;;;;;11.86;59.06;96293.34;4954157;29;20055;-74
2023/11/03 05:31:09;;;;;;;3.63;1.30;;;;;;;11.89;59.01;96296.63;4953864;29;20063;-75
2023/11/03 05:33:35;;;;;;;5.07;1.05;;;;;;;11.89;59.08;96294.78;4954158;29;20117;-75
2023/11/03 05:36:02;;;;;;;3.88;1.05;;;;;;;11.90;59.07;96290.34;4952878;29;20479;-76
2023/11/03 05:38:30;;;;;;;3.72;0.90;;;;;;;11.90;59.05;96296.44;4954197;28;20492;-75
2023/11/03 05:40:57;;;;;;;2.08;0.98;;;;;;;11.92;58.93;96304.19;4953706;29;20055;-76
2023/11/03 05:43:23;;;;;;;3.25;1.10;;;;;;;11.92;59.05;96312.09;4952514;29;20555;-75
2023/11/03 05:45:50;;;;;;;5.03;1.67;;;;;;;11.91;59.00;96310.44;4953706;29;20083;-75
2023/11/03 05:48:16;;;;;;;4.45;1.20;;;;;;;11.91;59.04;96313.06;4953913;29;20057;-76
2023/11/03 05:50:43;;;;;;;3.83;1.02;;;;;;;11.91;58.90;96307.78;4953272;29;20051;-75
2023/11/03 05:53:10;;;;;;;2.45;1.08;;;;;;;11.91;58.96;96321.78;4953456;29;20083;-75
2023/11/03 05:55:37;;;;;;;4.05;1.40;;;;;;;11.91;58.87;96316.53;4953643;29;20575;-75
2023/11/03 05:58:04;;;;;;;3.95;1.00;;;;;;;11.90;58.93;96320.16;4953384;29;20512;-75
2023/11/03 06:00:31;;;;;;;7.40;1.30;;;;;;;11.91;59.09;96327.06;4953485;28;20051;-74
2023/11/03 06:02:57;;;;;;;4.88;0.98;;;;;;;11.92;59.16;96330.53;4953513;29;20408;-76
2023/11/03 06:05:24;;;;;;;2.17;1.10;;;;;;;11.91;59.26;96318.34;4953781;29;20058;-75
2023/11/03 06:07:51;;;;;;;6.70;1.08;;;;;;;11.90;59.17;96325.44;4953555;29;20106;-75
2023/11/03 06:10:18;;;;;;;3.38;1.30;;;;;;;11.91;59.20;96331.50;4953291;28;20107;-76
2023/11/03 06:12:46;;;;;;;1.95;0.90;;;;;;;11.91;58.90;96327.06;4953282;29;20055;-75
2023/11/03 06:15:13;;;;;;;4.35;1.30;;;;;;;11.91;59.12;96331.50;4953474;29;20134;-75
2023/11/03 06:17:40;;;;;;;4.45;1.08;;;;;;;11.92;59.11;96335.81;4953393;29;20628;-75
2023/11/03 06:20:08;;;;;;;6.10;1.58;;;;;;;11.91;59.06;96331.50;4952939;28;20055;-76
2023/11/03 06:22:34;;;;;;;8.20;1.23;;;;;;;11.92;58.95;96338.44;4953227;29;20051;-75
2023/11/03 06:25:01;;;;;;;3.88;1.35;;;;;;;11.91;58.94;96336.78;4953156;29;20047;-75
2023/11/03 06:27:27;;;;;;;5.97;1.20;;;;;;;11.90;59.05;96341.25;4953087;29;20110;-75
2023/11/03 06:29:54;;;;;;;5.18;1.33;;;;;;;11.91;58.90;96349.97;4953134;28;20110;-75
2023/11/03 06:32:21;;;;;;;7.28;1.77;;;;;;;11.90;59.30;96356.22;4953138;29;20055;-75
2023/11/03 06:34:47;;;;;;;3.72;1.10;;;;;;;11.92;59.16;96356.88;4953051;29;20047;-75
2023/11/03 06:37:14;;;;;;;3.97;1.08;;;;;;;11.91;59.22;96368.41;4952935;29;20055;-75
2023/11/03 06:39:40;;;;;;;3.08;1.17;;;;;;;11.89;59.11;96371.22;4952993;29;20138;-76
2023/11/03 06:42:07;;;;;;;5.00;1.40;;;;;;;11.89;59.14;96373.06;4952813;29;20119;-74
2023/11/03 06:44:34;;;;;;;6.53;1.75;;;;;;;11.86;59.19;96369.75;4953045;28;20114;-74
2023/11/03 06:47:01;;;;;;;5.55;1.70;;;;;;;11.85;59.27;96378.66;4952748;29;20558;-75
2023/11/03 06:49:27;;;;;;;6.80;1.55;;;;;;;11.81;59.32;96385.28;4952456;29;20500;-74
2023/11/03 06:51:54;;;;;;;4.15;1.30;;;;;;;11.79;59.24;96387.31;4952586;29;20062;-75
2023/11/03 06:54:21;;;;;;;8.90;2.03;;;;;;;11.76;59.36;96385.03;4952789;29;20087;-75
2023/11/03 06:56:47;;;;;;;5.93;1.50;;;;;;;11.72;59.45;96384.56;4952602;29;20511;-75
2023/11/03 06:59:14;;;;;;;4.55;1.15;;;;;;;11.70;59.58;96385.75;4952882;29;20090;-74
2023/11/03 07:01:41;;;;;;;3.53;1.20;;;;;;;11.67;59.72;96384.25;4952334;28;20051;-75
2023/11/03 07:04:09;;;;;;;7.68;1.42;;;;;;;11.66;59.95;96387.91;4952631;29;20146;-75
2023/11/03 07:06:35;;;;;;;5.13;1.42;;;;;;;11.66;59.96;96414.25;4952274;29;20111;-75
2023/11/03 07:09:02;;;;;;;6.82;1.40;;;;;;;11.65;59.98;96398.63;4952340;29;20061;-75
2023/11/03 07:11:30;;;;;;;3.78;1.10;;;;;;;11.66;60.09;96398.44;4950968;29;20051;-75
2023/11/03 07:13:57;;;;;;;8.27;1.42;;;;;;;11.66;60.09;96410.81;4951810;28;20511;-76
2023/11/03 07:16:24;;;;;;;7.25;1.33;;;;;;;11.66;60.06;96408.97;4951710;29;20460;-76
2023/11/03 07:18:50;;;;;;;4.47;1.25;;;;;;;11.67;60.06;96420.34;4951629;29;20555;-74
2023/11/03 07:21:17;;;;;;;5.35;1.77;;;;;;;11.66;60.21;96430.06;4951520;29;20047;-75
2023/11/03 07:23:43;;;;;;;6.00;1.52;;;;;;;11.66;60.21;96427.41;4951470;29;20058;-76
2023/11/03 07:26:13;;;;;;;4.20;1.20;;;;;;;11.66;60.19;96427.41;4951723;29;20081;-75
2023/11/03 07:28:42;;;;;;;6.63;1.30;;;;;;;11.67;60.17;96429.06;4952766;28;20062;-75
2023/11/03 07:31:11;;;;;;;4.80;1.30;;;;;;;11.67;60.12;96428.25;4952858;28;20055;-76
2023/11/03 07:33:41;;;;;;;4.43;1.10;;;;;;;11.67;60.30;96429.06;4956129;29;20055;-76
2023/11/03 07:36:09;;;;;;;6.88;1.35;;;;;;;11.68;60.49;96425.44;4955815;29;20062;-75
2023/11/03 07:38:36;;;;;;;7.45;1.30;;;;;;;11.69;60.25;96426.25;4956290;29;20059;-74
2023/11/03 07:41:06;;;;;;;4.47;1.17;;;;;;;11.70;60.41;96441.88;4955968;29;20047;-75
2023/11/03 07:43:36;;;;;;;4.82;1.60;;;;;;;11.72;60.45;96425.91;4956030;29;20150;-75
2023/11/03 07:46:03;;;;;;;7.00;1.58;;;;;;;11.73;60.26;96431.00;4956103;29;20142;-74
2023/11/03 07:48:29;;;;;;;5.05;1.75;;;;;;;11.73;60.27;96430.16;4955794;29;20460;-77
2023/11/03 07:50:56;;;;;;;6.45;1.17;;;;;;;11.75;60.42;96436.09;4955659;29;20047;-75
2023/11/03 07:53:22;;;;;;;7.55;1.60;;;;;;;11.76;60.44;96434.25;4955990;29;20086;-75
2023/11/03 07:55:49;;;;;;;7.50;1.60;;;;;;;11.78;60.68;96434.91;4955917;29;20114;-75
2023/11/03 07:58:15;;;;;;;8.90;2.03;;;;;;;11.78;60.70;96454.16;4955709;28;20133;-76
2023/11/03 08:00:42;;;;;;;7.60;1.52;;;;;;;11.80;60.55;96432.91;4955562;29;20050;-74
2023/11/03 08:03:08;;;;;;;7.40;1.70;;;;;;;11.83;60.59;96456.28;4955473;29;20089;-75
2023/11/03 08:05:36;;;;;;;10.10;1.40;;;;;;;11.84;60.61;96458.72;4955837;29;20118;-75
2023/11/03 08:08:04;;;;;;;6.85;1.48;;;;;;;11.87;60.64;96449.66;4955766;29;20048;-76
2023/11/03 08:10:31;;;;;;;6.07;1.27;;;;;;;11.89;60.53;96450.28;4955134;29;20518;-76
2023/11/03 08:12:58;;;;;;;5.80;1.50;;;;;;;11.91;60.55;96455.38;4955384;28;20191;-75
2023/11/03 08:15:24;;;;;;;7.88;2.00;;;;;;;11.92;60.24;96459.69;4955415;28;20043;-75
2023/11/03 08:17:51;;;;;;;6.43;1.55;;;;;;;11.93;60.45;96458.66;4955034;29;20122;-75
2023/11/03 08:20:18;;;;;;;8.27;1.83;;;;;;;11.94;60.50;96460.31;4954066;29;20051;-76
2023/11/03 08:22:48;;;;;;;6.03;1.80;;;;;;;11.96;60.62;96476.78;4955250;29;20479;-74
2023/11/03 08:25:15;;;;;;;5.38;1.45;;;;;;;11.95;60.41;96459.28;4955395;29;20047;-75
2023/11/03 08:27:42;;;;;;;7.18;1.58;;;;;;;11.96;60.58;96466.22;4955024;29;20476;-76
2023/11/03 08:30:09;;;;;;;7.40;1.60;;;;;;;11.98;60.39;96474.75;4954237;29;20083;-75
2023/11/03 08:32:38;;;;;;;4.72;1.13;;;;;;;11.98;61.08;96464.22;4955438;29;20047;-74
2023/11/03 08:35:05;;;;;;;4.13;1.30;;;;;;;12.03;60.97;96476.88;4955003;29;20053;-74
2023/11/03 08:37:33;;;;;;;6.63;1.60;;;;;;;12.05;60.89;96481.00;4955103;29;20062;-75
2023/11/03 08:39:59;;;;;;;6.70;1.00;;;;;;;12.08;60.75;96479.81;4954751;29;20519;-75
2023/11/03 08:42:27;;;;;;;8.60;1.70;;;;;;;12.11;60.70;96482.91;4952740;28;20051;-76
2023/11/03 08:44:53;;;;;;;10.95;1.42;;;;;;;12.14;60.60;96486.22;4954334;29;20047;-74
2023/11/03 08:47:20;;;;;;;5.50;1.35;;;;;;;12.15;60.54;96501.81;4955050;29;20405;-75
2023/11/03 08:49:47;;;;;;;3.97;1.10;;;;;;;12.17;60.46;96493.75;4954827;29;20055;-75
2023/11/03 08:52:13;;;;;;;4.47;1.23;;;;;;;12.17;60.48;96515.66;4955020;29;20462;-75
2023/11/03 08:54:40;;;;;;;7.80;1.33;;;;;;;12.18;60.51;96511.22;4954797;29;20086;-76
2023/11/03 08:57:07;;;;;;;5.40;1.85;;;;;;;12.16;60.31;96527.22;4953361;29;20134;-77
2023/11/03 08:59:34;;;;;;;6.38;1.33;;;;;;;12.17;60.44;96528.00;4954174;29;20127;-75
2023/11/03 09:02:00;;;;;;;7.13;1.45;;;;;;;12.16;60.43;96526.38;4952182;29;20404;-75
2023/11/03 09:04:27;;;;;;;8.80;1.60;;;;;;;12.17;60.38;96541.19;4953607;29;20085;-74
2023/11/03 09:06:54;;;;;;;5.13;1.50;;;;;;;12.16;60.30;96531.66;4953791;29;20059;-75
2023/11/03 09:09:21;;;;;;;7.80;1.77;;;;;;;12.17;60.46;96546.47;4937430;29;20051;-77
2023/11/03 09:11:48;;;;;;;5.32;1.48;;;;;;;12.17;60.45;96552.56;4953112;29;20488;-75
2023/11/03 09:14:15;;;;;;;7.35;1.77;;;;;;;12.15;60.39;96551.91;4954127;29;20058;-76
2023/11/03 09:16:42;;;;;;;5.43;1.50;;;;;;;12.15;60.46;96559.81;4953330;29;20494;-75
2023/11/03 09:19:08;;;;;;;6.43;1.20;;;;;;;12.15;60.49;96548.47;4953423;28;20047;-76
2023/11/03 09:21:35;;;;;;;9.18;1.88;;;;;;;12.14;60.55;96568.75;4952919;29;20077;-75
2023/11/03 09:24:02;;;;;;;7.38;1.70;;;;;;;12.15;60.59;96572.22;4953002;29;20047;-76
2023/11/03 09:26:29;;;;;;;4.90;1.30;;;;;;;12.15;60.73;96580.13;4952749;29;20142;-75
2023/11/03 09:28:56;;;;;;;5.75;1.27;;;;;;;12.14;60.53;96589.84;4952921;29;20577;-74
2023/11/03 09:31:24;;;;;;;9.10;1.77;;;;;;;12.14;60.64;96589.84;4953582;29;20555;-75
2023/11/03 09:33:51;;;;;;;9.38;1.50;;;;;;;12.13;60.50;96596.09;4954176;28;20082;-75
2023/11/03 09:36:18;;;;;;;7.50;1.90;;;;;;;12.11;60.64;96601.56;4953959;29;20051;-75
2023/11/03 09:38:44;;;;;;;6.97;2.33;;;;;;;12.12;60.62;96616.38;4952740;29;20059;-76
2023/11/03 09:41:12;;;;;;;6.13;1.77;;;;;;;12.14;60.93;96623.31;4952638;29;20047;-75
2023/11/03 09:43:41;;;;;;;7.88;1.50;;;;;;;12.16;60.82;96626.56;4954117;29;20480;-75
2023/11/03 09:46:09;;;;;;;9.30;1.88;;;;;;;12.18;60.57;96627.25;4952774;29;20053;-74
2023/11/03 09:48:36;;;;;;;7.82;2.00;;;;;;;12.18;60.78;96638.59;4953975;28;20074;-75
2023/11/03 09:51:02;;;;;;;7.93;1.63;;;;;;;12.21;60.91;96632.97;4952346;29;20052;-74
2023/11/03 09:53:30;;;;;;;8.80;1.90;;;;;;;12.21;60.87;96637.41;4953536;28;20086;-76
2023/11/03 09:55:59;;;;;;;9.10;1.63;;;;;;;12.23;60.78;96641.50;4953294;29;20138;-75
2023/11/03 09:58:26;;;;;;;7.93;1.60;;;;;;;12.23;60.78;96638.88;4953728;29;20054;-76
2023/11/03 10:00:52;;;;;;;4.53;1.67;;;;;;;12.24;60.79;96652.88;4953469;29;20465;-75
2023/11/03 10:03:20;;;;;;;12.27;1.88;;;;;;;12.24;60.83;96651.09;4953539;29;20075;-74
2023/11/03 10:05:48;;;;;;;10.07;2.00;;;;;;;12.24;60.75;96647.63;4953475;29;20050;-75
2023/11/03 10:08:17;;;;;;;4.97;1.38;;;;;;;12.27;60.80;96651.72;4953251;29;20047;-74
2023/11/03 10:10:47;;;;;;;6.82;1.70;;;;;;;12.28;60.73;96658.63;4953214;28;20055;-75
2023/11/03 10:13:15;;;;;;;13.13;2.20;;;;;;;12.29;60.76;96660.28;4953275;29;20050;-75
2023/11/03 10:15:43;;;;;;;9.50;1.80;;;;;;;12.29;60.72;96663.72;4953425;28;20146;-76
2023/11/03 10:18:10;;;;;;;11.95;2.08;;;;;;;12.31;60.80;96659.13;4953206;29;20690;-75
2023/11/03 10:20:41;;;;;;;9.25;1.95;;;;;;;12.30;60.80;96673.28;4953318;28;20678;-76
2023/11/03 10:23:08;;;;;;;10.68;1.95;;;;;;;12.33;60.62;96665.03;4953384;29;20167;-75
2023/11/03 10:25:35;;;;;;;7.88;1.75;;;;;;;12.33;60.82;96667.66;4953331;29;20118;-74
2023/11/03 10:28:04;;;;;;;7.28;1.98;;;;;;;12.34;60.70;96669.28;4953177;29;20055;-77
2023/11/03 10:30:31;;;;;;;11.40;2.17;;;;;;;12.36;60.55;96672.59;4951784;29;20047;-75
2023/11/03 10:32:57;;;;;;;6.97;1.75;;;;;;;12.37;60.68;96671.59;4953004;29;20145;-76
2023/11/03 10:35:24;;;;;;;7.38;2.05;;;;;;;12.40;60.49;96682.81;4953000;29;20082;-75
2023/11/03 10:37:52;;;;;;;12.70;2.33;;;;;;;12.41;60.84;96679.97;4953315;29;20054;-75
2023/11/03 10:40:19;;;;;;;10.05;2.25;;;;;;;12.43;60.70;96677.16;4952922;29;20047;-76
2023/11/03 10:42:48;;;;;;;7.47;1.98;;;;;;;12.45;60.71;96675.19;4952937;29;20058;-75
2023/11/03 10:45:20;;;;;;;11.88;2.08;;;;;;;12.46;60.45;96680.28;4953032;29;20089;-75
2023/11/03 10:48:11;;;;;;;10.27;2.03;;;;;;;12.48;60.83;96674.81;4952847;29;20047;-75
2023/11/03 10:50:45;;;;;;;13.35;2.45;;;;;;;12.51;60.59;96685.00;4952890;29;20051;-74
2023/11/03 10:53:23;;;;;;;13.20;2.28;;;;;;;12.52;60.54;96678.72;4951695;29;20452;-74
2023/11/03 10:56:07;;;;;;;12.23;1.55;;;;;;;12.55;60.77;96683.66;4952978;29;20086;-75
2023/11/03 10:58:54;;;;;;;7.78;2.03;;;;;;;12.62;60.17;96671.41;4952774;29;20058;-74
2023/11/03 11:01:29;;;;;;;10.60;1.92;;;;;;;12.62;60.37;96679.34;4951630;29;20055;-75
2023/11/03 11:04:06;;;;;;;9.73;1.98;;;;;;;12.63;60.00;96675.69;4952707;29;20138;-76
2023/11/03 11:06:40;;;;;;;7.05;1.58;;;;;;;12.67;59.97;96680.63;4953946;28;20079;-75
2023/11/03 11:09:11;;;;;;;10.43;2.42;;;;;;;12.69;59.90;96675.97;4956936;29;20083;-74
2023/11/03 11:11:38;;;;;;;9.13;1.70;;;;;;;12.72;59.81;96673.81;4956459;29;20095;-74
2023/11/03 11:14:16;;;;;;;7.65;1.65;;;;;;;12.71;59.76;96668.72;4956869;29;20053;-75
2023/11/03 11:16:43;;;;;;;9.38;1.92;;;;;;;12.76;59.93;96671.63;4955347;29;20051;-74
2023/11/03 11:19:14;;;;;;;10.80;2.17;;;;;;;12.76;59.86;96679.56;4956410;29;20664;-76
2023/11/03 11:21:50;;;;;;;8.30;2.10;;;;;;;12.76;59.73;96680.34;4956462;28;20062;-75
2023/11/03 11:24:27;;;;;;;9.20;1.77;;;;;;;12.80;60.02;96682.66;4956624;29;20055;-75
2023/11/03 11:27:21;;;;;;;6.60;1.70;;;;;;;12.81;59.79;96682.47;4956336;29;20062;-75
2023/11/03 11:29:52;;;;;;;6.25;1.90;;;;;;;12.89;59.86;96695.59;4956199;29;20056;-75
2023/11/03 11:32:25;;;;;;;5.32;1.90;;;;;;;12.90;59.68;96704.34;4956465;29;20043;-76